Aviation Digital Data Service (ADDS)

Output produced by METARs form (1051 UTC 19 February 2019)
found at http://www.aviationweather.gov/metar/data/
 
METAR text: PGRO 190950Z 07015KT 7SM SCT013 BKN080 25/22 A3000 RMK WIND DATA ESTIMATED LAST
Conditions at: PGRO (ROTA INTL AIRP , FM) observed 0950 UTC 19 February 2019
Temperature: 25.0°C (77°F)
Dewpoint: 22.0°C (72°F) [RH = 83%]
Pressure (altimeter): 30.00 inches Hg (1016.0 mb)
Winds: from the ENE (70 degrees) at 17 MPH (15 knots; 7.7 m/s)
Visibility: 7 miles (11 km)
Ceiling: 8000 feet AGL
Clouds: scattered clouds at 1300 feet AGL
broken clouds at 8000 feet AGL
Weather: no significant weather observed at this time

METAR text: PGRO 190850Z 06015KT 7SM SCT013 BKN080 25/22 A2999 RMK WIND DATA ESTIMATED
Conditions at: PGRO (ROTA INTL AIRP , FM) observed 0850 UTC 19 February 2019
Temperature: 25.0°C (77°F)
Dewpoint: 22.0°C (72°F) [RH = 83%]
Pressure (altimeter): 29.99 inches Hg (1015.7 mb)
Winds: from the ENE (60 degrees) at 17 MPH (15 knots; 7.7 m/s)
Visibility: 7 miles (11 km)
Ceiling: 8000 feet AGL
Clouds: scattered clouds at 1300 feet AGL
broken clouds at 8000 feet AGL
Weather: no significant weather observed at this time

METAR text: PGRO 190750Z 07014KT 7SM SCT013 BKN080 25/21 A2998 RMK WIND DATA ESTIMATED
Conditions at: PGRO (ROTA INTL AIRP , FM) observed 0750 UTC 19 February 2019
Temperature: 25.0°C (77°F)
Dewpoint: 21.0°C (70°F) [RH = 79%]
Pressure (altimeter): 29.98 inches Hg (1015.3 mb)
Winds: from the ENE (70 degrees) at 16 MPH (14 knots; 7.2 m/s)
Visibility: 7 miles (11 km)
Ceiling: 8000 feet AGL
Clouds: scattered clouds at 1300 feet AGL
broken clouds at 8000 feet AGL
Weather: no significant weather observed at this time

METAR text: PGRO 190650Z 06013KT 7SM SCT013 BKN080 25/22 A2997 RMK WIND DATA ESTIMATED
Conditions at: PGRO (ROTA INTL AIRP , FM) observed 0650 UTC 19 February 2019
Temperature: 25.0°C (77°F)
Dewpoint: 22.0°C (72°F) [RH = 83%]
Pressure (altimeter): 29.97 inches Hg (1015.0 mb)
Winds: from the ENE (60 degrees) at 15 MPH (13 knots; 6.7 m/s)
Visibility: 7 miles (11 km)
Ceiling: 8000 feet AGL
Clouds: scattered clouds at 1300 feet AGL
broken clouds at 8000 feet AGL
Weather: no significant weather observed at this time

METAR text: PGRO 190550Z 06013KT 7SM BKN012 BKN080 25/22 A2996 RMK WIND DATA ESTIMATED
Conditions at: PGRO (ROTA INTL AIRP , FM) observed 0550 UTC 19 February 2019
Temperature: 25.0°C (77°F)
Dewpoint: 22.0°C (72°F) [RH = 83%]
Pressure (altimeter): 29.96 inches Hg (1014.6 mb)
Winds: from the ENE (60 degrees) at 15 MPH (13 knots; 6.7 m/s)
Visibility: 7 miles (11 km)
Ceiling: 1200 feet AGL
Clouds: broken clouds at 1200 feet AGL
broken clouds at 8000 feet AGL
Weather: no significant weather observed at this time

METAR text: PGRO 190450Z 07016KT 6SM -RA BR BKN012 OVC080 24/23 A2997 RMK WIND DATA ESTIMATED
Conditions at: PGRO (ROTA INTL AIRP , FM) observed 0450 UTC 19 February 2019
Temperature: 24.0°C (75°F)
Dewpoint: 23.0°C (73°F) [RH = 94%]
Pressure (altimeter): 29.97 inches Hg (1015.0 mb)
Winds: from the ENE (70 degrees) at 18 MPH (16 knots; 8.2 m/s)
Visibility: 6 miles (10 km)
Ceiling: 1200 feet AGL
Clouds: broken clouds at 1200 feet AGL
overcast cloud deck at 8000 feet AGL
Weather: -RA BR  (light rain, mist)

METAR text: PGRO 190350Z 04014KT 7SM BKN014 BKN100 27/22 A2998 RMK WIND DATA ESTIMATED
Conditions at: PGRO (ROTA INTL AIRP , FM) observed 0350 UTC 19 February 2019
Temperature: 27.0°C (81°F)
Dewpoint: 22.0°C (72°F) [RH = 74%]
Pressure (altimeter): 29.98 inches Hg (1015.3 mb)
Winds: from the NE (40 degrees) at 16 MPH (14 knots; 7.2 m/s)
Visibility: 7 miles (11 km)
Ceiling: 1400 feet AGL
Clouds: broken clouds at 1400 feet AGL
broken clouds at 10000 feet AGL
Weather: no significant weather observed at this time

METAR text: PGRO 190250Z 06015KT 7SM BKN014 BKN100 27/20 A3000 RMK WIND DATA ESTIMATED
Conditions at: PGRO (ROTA INTL AIRP , FM) observed 0250 UTC 19 February 2019
Temperature: 27.0°C (81°F)
Dewpoint: 20.0°C (68°F) [RH = 66%]
Pressure (altimeter): 30.00 inches Hg (1016.0 mb)
Winds: from the ENE (60 degrees) at 17 MPH (15 knots; 7.7 m/s)
Visibility: 7 miles (11 km)
Ceiling: 1400 feet AGL
Clouds: broken clouds at 1400 feet AGL
broken clouds at 10000 feet AGL
Weather: no significant weather observed at this time

METAR text: PGRO 190155Z 06014KT 7SM BKN014 26/21 A3002 RMK WIND DATA ESTIMATED
Conditions at: PGRO (ROTA INTL AIRP , FM) observed 0155 UTC 19 February 2019
Temperature: 26.0°C (79°F)
Dewpoint: 21.0°C (70°F) [RH = 74%]
Pressure (altimeter): 30.02 inches Hg (1016.7 mb)
Winds: from the ENE (60 degrees) at 16 MPH (14 knots; 7.2 m/s)
Visibility: 7 miles (11 km)
Ceiling: 1400 feet AGL
Clouds: broken clouds at 1400 feet AGL
Weather: no significant weather observed at this time

METAR text: PGRO 190050Z 06013KT 7SM BKN014 26/21 A3005 RMK WIND DATA ESTIMATED
Conditions at: PGRO (ROTA INTL AIRP , FM) observed 0050 UTC 19 February 2019
Temperature: 26.0°C (79°F)
Dewpoint: 21.0°C (70°F) [RH = 74%]
Pressure (altimeter): 30.05 inches Hg (1017.7 mb)
Winds: from the ENE (60 degrees) at 15 MPH (13 knots; 6.7 m/s)
Visibility: 7 miles (11 km)
Ceiling: 1400 feet AGL
Clouds: broken clouds at 1400 feet AGL
Weather: no significant weather observed at this time

METAR text: PGRO 182350Z 05015KT 7SM BKN014 26/21 A3006 RMK WIND DATA ESTIMATED
Conditions at: PGRO (ROTA INTL AIRP , FM) observed 2350 UTC 18 February 2019
Temperature: 26.0°C (79°F)
Dewpoint: 21.0°C (70°F) [RH = 74%]
Pressure (altimeter): 30.06 inches Hg (1018.0 mb)
Winds: from the NE (50 degrees) at 17 MPH (15 knots; 7.7 m/s)
Visibility: 7 miles (11 km)
Ceiling: 1400 feet AGL
Clouds: broken clouds at 1400 feet AGL
Weather: no significant weather observed at this time

METAR text: PGRO 182250Z 06014KT 7SM -RA BKN014 BKN100 25/20 A3005 RMK WIND DATA ESTIMATED
Conditions at: PGRO (ROTA INTL AIRP , FM) observed 2250 UTC 18 February 2019
Temperature: 25.0°C (77°F)
Dewpoint: 20.0°C (68°F) [RH = 74%]
Pressure (altimeter): 30.05 inches Hg (1017.7 mb)
Winds: from the ENE (60 degrees) at 16 MPH (14 knots; 7.2 m/s)
Visibility: 7 miles (11 km)
Ceiling: 1400 feet AGL
Clouds: broken clouds at 1400 feet AGL
broken clouds at 10000 feet AGL
Weather: -RA  (light rain)

METAR text: PGRO 182150Z 06010KT 7SM BKN014 BKN100 25/21 A3003 RMK WIND DATA ESTIMATED
Conditions at: PGRO (ROTA INTL AIRP , FM) observed 2150 UTC 18 February 2019
Temperature: 25.0°C (77°F)
Dewpoint: 21.0°C (70°F) [RH = 79%]
Pressure (altimeter): 30.03 inches Hg (1017.0 mb)
Winds: from the ENE (60 degrees) at 12 MPH (10 knots; 5.1 m/s)
Visibility: 7 miles (11 km)
Ceiling: 1400 feet AGL
Clouds: broken clouds at 1400 feet AGL
broken clouds at 10000 feet AGL
Weather: no significant weather observed at this time

METAR text: PGRO 182055Z 05012KT 7SM BKN014 BKN100 24/21 A3002 RMK WIND DATA ESTIMATED
Conditions at: PGRO (ROTA INTL AIRP , FM) observed 2055 UTC 18 February 2019
Temperature: 24.0°C (75°F)
Dewpoint: 21.0°C (70°F) [RH = 83%]
Pressure (altimeter): 30.02 inches Hg (1016.7 mb)
Winds: from the NE (50 degrees) at 14 MPH (12 knots; 6.2 m/s)
Visibility: 7 miles (11 km)
Ceiling: 1400 feet AGL
Clouds: broken clouds at 1400 feet AGL
broken clouds at 10000 feet AGL
Weather: no significant weather observed at this time

METAR text: PGRO 182034Z 05009KT 7SM -RA BKN014 BKN100 24/22 A3001 RMK WIND DATA ESTIMATED FIRST
Conditions at: PGRO (ROTA INTL AIRP , FM) observed 2034 UTC 18 February 2019
Temperature: 24.0°C (75°F)
Dewpoint: 22.0°C (72°F) [RH = 89%]
Pressure (altimeter): 30.01 inches Hg (1016.3 mb)
Winds: from the NE (50 degrees) at 10 MPH (9 knots; 4.6 m/s)
Visibility: 7 miles (11 km)
Ceiling: 1400 feet AGL
Clouds: broken clouds at 1400 feet AGL
broken clouds at 10000 feet AGL
Weather: -RA  (light rain)

METAR text: PGRO 180950Z COR 04013KT 7SM -RA BKN012 24/23 A3002 RMK WIND DATA ESTIMATED LAST
Conditions at: PGRO (ROTA INTL AIRP , FM) observed 0950 UTC 18 February 2019
Temperature: 24.0°C (75°F)
Dewpoint: 23.0°C (73°F) [RH = 94%]
Pressure (altimeter): 30.02 inches Hg (1016.7 mb)
Winds: from the NE (40 degrees) at 15 MPH (13 knots; 6.7 m/s)
Visibility: 7 miles (11 km)
Ceiling: 1200 feet AGL
Clouds: broken clouds at 1200 feet AGL
Weather: -RA  (light rain)

METAR text: PGRO 180850Z 03015KT 7SM -RA BKN012 BKN100 24/23 A3000 RMK WIND DATA ESTIMATED
Conditions at: PGRO (ROTA INTL AIRP , FM) observed 0850 UTC 18 February 2019
Temperature: 24.0°C (75°F)
Dewpoint: 23.0°C (73°F) [RH = 94%]
Pressure (altimeter): 30.00 inches Hg (1016.0 mb)
Winds: from the NNE (30 degrees) at 17 MPH (15 knots; 7.7 m/s)
Visibility: 7 miles (11 km)
Ceiling: 1200 feet AGL
Clouds: broken clouds at 1200 feet AGL
broken clouds at 10000 feet AGL
Weather: -RA  (light rain)

METAR text: PGRO 180750Z 04015KT 7SM BKN012 BKN100 25/22 A2999 RMK WIND DATA ESTIMATED
Conditions at: PGRO (ROTA INTL AIRP , FM) observed 0750 UTC 18 February 2019
Temperature: 25.0°C (77°F)
Dewpoint: 22.0°C (72°F) [RH = 83%]
Pressure (altimeter): 29.99 inches Hg (1015.7 mb)
Winds: from the NE (40 degrees) at 17 MPH (15 knots; 7.7 m/s)
Visibility: 7 miles (11 km)
Ceiling: 1200 feet AGL
Clouds: broken clouds at 1200 feet AGL
broken clouds at 10000 feet AGL
Weather: no significant weather observed at this time

METAR text: PGRO 180650Z 03013KT 7SM BKN012 BKN080 26/21 A2997 RMK WIND DATA ESTIMATED
Conditions at: PGRO (ROTA INTL AIRP , FM) observed 0650 UTC 18 February 2019
Temperature: 26.0°C (79°F)
Dewpoint: 21.0°C (70°F) [RH = 74%]
Pressure (altimeter): 29.97 inches Hg (1015.0 mb)
Winds: from the NNE (30 degrees) at 15 MPH (13 knots; 6.7 m/s)
Visibility: 7 miles (11 km)
Ceiling: 1200 feet AGL
Clouds: broken clouds at 1200 feet AGL
broken clouds at 8000 feet AGL
Weather: no significant weather observed at this time

METAR text: PGRO 180550Z 03013KT 7SM BKN012 BKN080 25/22 A2996 RMK WIND DATA ESTIMATED
Conditions at: PGRO (ROTA INTL AIRP , FM) observed 0550 UTC 18 February 2019
Temperature: 25.0°C (77°F)
Dewpoint: 22.0°C (72°F) [RH = 83%]
Pressure (altimeter): 29.96 inches Hg (1014.6 mb)
Winds: from the NNE (30 degrees) at 15 MPH (13 knots; 6.7 m/s)
Visibility: 7 miles (11 km)
Ceiling: 1200 feet AGL
Clouds: broken clouds at 1200 feet AGL
broken clouds at 8000 feet AGL
Weather: no significant weather observed at this time

METAR text: PGRO 180450Z 04014KT 7SM BKN013 BKN080 26/21 A2996 RMK WIND DATA ESTIMATED
Conditions at: PGRO (ROTA INTL AIRP , FM) observed 0450 UTC 18 February 2019
Temperature: 26.0°C (79°F)
Dewpoint: 21.0°C (70°F) [RH = 74%]
Pressure (altimeter): 29.96 inches Hg (1014.6 mb)
Winds: from the NE (40 degrees) at 16 MPH (14 knots; 7.2 m/s)
Visibility: 7 miles (11 km)
Ceiling: 1300 feet AGL
Clouds: broken clouds at 1300 feet AGL
broken clouds at 8000 feet AGL
Weather: no significant weather observed at this time

METAR text: PGRO 180350Z 03013KT 7SM BKN013 BKN080 27/22 A2997 RMK WIND DATA ESTIMATED
Conditions at: PGRO (ROTA INTL AIRP , FM) observed 0350 UTC 18 February 2019
Temperature: 27.0°C (81°F)
Dewpoint: 22.0°C (72°F) [RH = 74%]
Pressure (altimeter): 29.97 inches Hg (1015.0 mb)
Winds: from the NNE (30 degrees) at 15 MPH (13 knots; 6.7 m/s)
Visibility: 7 miles (11 km)
Ceiling: 1300 feet AGL
Clouds: broken clouds at 1300 feet AGL
broken clouds at 8000 feet AGL
Weather: no significant weather observed at this time

METAR text: PGRO 180250Z 02015KT 7SM SCT014 BKN080 27/20 A3000 RMK WIND DATA ESTIMATED
Conditions at: PGRO (ROTA INTL AIRP , FM) observed 0250 UTC 18 February 2019
Temperature: 27.0°C (81°F)
Dewpoint: 20.0°C (68°F) [RH = 66%]
Pressure (altimeter): 30.00 inches Hg (1016.0 mb)
Winds: from the NNE (20 degrees) at 17 MPH (15 knots; 7.7 m/s)
Visibility: 7 miles (11 km)
Ceiling: 8000 feet AGL
Clouds: scattered clouds at 1400 feet AGL
broken clouds at 8000 feet AGL
Weather: no significant weather observed at this time

METAR text: PGRO 180150Z 02013KT 7SM BKN014 BKN080 26/20 A3003 RMK WIND DATA ESTIMATED
Conditions at: PGRO (ROTA INTL AIRP , FM) observed 0150 UTC 18 February 2019
Temperature: 26.0°C (79°F)
Dewpoint: 20.0°C (68°F) [RH = 70%]
Pressure (altimeter): 30.03 inches Hg (1017.0 mb)
Winds: from the NNE (20 degrees) at 15 MPH (13 knots; 6.7 m/s)
Visibility: 7 miles (11 km)
Ceiling: 1400 feet AGL
Clouds: broken clouds at 1400 feet AGL
broken clouds at 8000 feet AGL
Weather: no significant weather observed at this time

METAR text: PGRO 180050Z 03014KT 7SM SCT014 SCT120 27/18 A3004 RMK WIND DATA ESTIMATED
Conditions at: PGRO (ROTA INTL AIRP , FM) observed 0050 UTC 18 February 2019
Temperature: 27.0°C (81°F)
Dewpoint: 18.0°C (64°F) [RH = 58%]
Pressure (altimeter): 30.04 inches Hg (1017.4 mb)
Winds: from the NNE (30 degrees) at 16 MPH (14 knots; 7.2 m/s)
Visibility: 7 miles (11 km)
Ceiling: at least 12,000 feet AGL
Clouds: scattered clouds at 1400 feet AGL
scattered clouds at 12000 feet AGL
Weather: no significant weather observed at this time

METAR text: PGRO 172350Z 04012KT 7SM SCT015 27/19 A3005 RMK WIND DATA ESTIMATED
Conditions at: PGRO (ROTA INTL AIRP , FM) observed 2350 UTC 17 February 2019
Temperature: 27.0°C (81°F)
Dewpoint: 19.0°C (66°F) [RH = 62%]
Pressure (altimeter): 30.05 inches Hg (1017.7 mb)
Winds: from the NE (40 degrees) at 14 MPH (12 knots; 6.2 m/s)
Visibility: 7 miles (11 km)
Ceiling: at least 12,000 feet AGL
Clouds: scattered clouds at 1500 feet AGL
Weather: no significant weather observed at this time

Forecast for: PGRO (ROTA INTL AIRP , FM)
Text: PGRO 190527Z 1906/2006 06014G20KT P6SM VCSH SCT014 BKN035 BKN100
Forecast period: 0600 UTC 19 February 2019 to 0600 UTC 20 February 2019
Forecast type: FROM: standard forecast or significant change
Winds: from the ENE (60 degrees) at 16 MPH (14 knots; 7.2 m/s)
gusting to 23 MPH (20 knots; 10.3 m/s)
Visibility: 6 or more miles 10+ km)
Ceiling: 3500 feet AGL
Clouds: scattered clouds at 1400 feet AGL
broken clouds at 3500 feet AGL
broken clouds at 10000 feet AGL
Weather: VCSH  (showers in vicinity)
Text: TEMPO 1906/1908 5SM -SHRA SCT014 OVC025
Forecast period: 0600 to 0800 UTC 19 February 2019
Forecast type: TEMPORARY: The following changes expected for less than half the time period
Visibility: 5 miles (8 km)
Ceiling: 2500 feet AGL
Clouds: scattered clouds at 1400 feet AGL
overcast cloud deck at 2500 feet AGL
Weather: -SHRA  (light rain showers)